createdAt,value
2022-08-16T00:01:11.738Z,62.04
2022-08-16T00:03:40.901Z,62.44
2022-08-16T00:06:07.963Z,63.36
2022-08-16T00:08:37.656Z,63.26
2022-08-16T00:11:07.144Z,62.41
2022-08-16T00:17:01.262Z,62.21
2022-08-16T00:19:02.394Z,61.95
2022-08-16T00:21:29.311Z,61.97
2022-08-16T00:23:56.743Z,62.52
2022-08-16T00:26:36.430Z,62.38
2022-08-16T00:29:12.604Z,63.38
2022-08-16T00:31:58.912Z,63.23
2022-08-16T00:34:43.687Z,63.54
2022-08-16T00:37:17.287Z,63.53
2022-08-16T00:39:48.031Z,63.30
2022-08-16T00:42:30.542Z,63.01
2022-08-16T00:45:36.620Z,62.92
2022-08-16T00:48:30.433Z,63.40
2022-08-16T00:51:00.085Z,63.11
2022-08-16T00:53:30.935Z,63.05
2022-08-16T00:56:01.338Z,63.20
2022-08-16T00:58:35.374Z,63.40
2022-08-16T01:01:08.669Z,63.84
2022-08-16T01:03:41.629Z,64.43
2022-08-16T01:06:39.752Z,64.50
2022-08-16T01:08:59.960Z,65.08
2022-08-16T01:11:27.762Z,64.77
2022-08-16T01:14:01.480Z,64.67
2022-08-16T01:16:29.543Z,65.45
2022-08-16T01:19:05.631Z,65.23
2022-08-16T01:21:52.571Z,65.23
2022-08-16T01:24:53.455Z,65.53
2022-08-16T01:27:22.485Z,65.18
2022-08-16T01:29:59.996Z,65.62
2022-08-16T01:32:33.673Z,66.29
2022-08-16T01:35:02.870Z,67.69
2022-08-16T01:37:35.767Z,68.65
2022-08-16T01:40:07.493Z,69.07
2022-08-16T01:42:35.634Z,70.13
2022-08-16T01:45:02.562Z,69.64
2022-08-16T01:47:32.975Z,68.38
2022-08-16T01:50:43.164Z,68.07
2022-08-16T01:52:53.235Z,68.12
2022-08-16T01:55:22.473Z,68.72
2022-08-16T01:57:53.689Z,69.42
2022-08-16T02:00:29.109Z,70.44
2022-08-16T02:02:57.017Z,69.79
2022-08-16T02:05:24.145Z,69.17
2022-08-16T02:07:52.146Z,69.00
2022-08-16T02:10:27.841Z,68.71
2022-08-16T02:12:55.798Z,69.15
2022-08-16T02:15:28.789Z,68.57
2022-08-16T02:17:58.547Z,68.48
2022-08-16T02:20:29.667Z,68.49
2022-08-16T02:22:59.656Z,68.39
2022-08-16T02:25:50.935Z,68.40
2022-08-16T02:28:17.454Z,68.44
2022-08-16T02:30:50.910Z,69.37
2022-08-16T02:33:19.601Z,69.48
2022-08-16T02:35:55.155Z,70.85
2022-08-16T02:38:25.820Z,71.59
2022-08-16T02:40:54.712Z,70.76
2022-08-16T02:43:26.794Z,70.38
2022-08-16T02:45:57.391Z,70.37
2022-08-16T02:48:29.072Z,70.23
2022-08-16T02:51:10.479Z,70.30
2022-08-16T02:53:44.843Z,71.77
2022-08-16T02:56:17.131Z,74.39
2022-08-16T02:58:46.158Z,75.95
2022-08-16T03:01:25.339Z,74.85
2022-08-16T03:04:28.941Z,74.41
2022-08-16T03:06:56.664Z,75.89
2022-08-16T03:09:25.042Z,74.50
2022-08-16T03:11:51.864Z,73.52
2022-08-16T03:14:21.313Z,72.88
2022-08-16T03:16:59.284Z,72.80
2022-08-16T03:19:56.438Z,72.88
2022-08-16T03:22:18.996Z,72.53
2022-08-16T03:24:54.545Z,73.72
2022-08-16T03:27:25.625Z,73.52
2022-08-16T03:30:26.549Z,72.84
2022-08-16T03:32:54.149Z,72.78
2022-08-16T03:35:32.626Z,72.29
2022-08-16T03:38:03.950Z,72.21
2022-08-16T03:40:34.043Z,72.05
2022-08-16T03:43:20.765Z,72.04
2022-08-16T03:45:49.553Z,71.80
2022-08-16T03:48:21.323Z,71.79
2022-08-16T03:51:08.607Z,72.06
2022-08-16T03:53:38.003Z,72.36
2022-08-16T03:56:07.612Z,73.96
2022-08-16T03:58:44.617Z,75.67
2022-08-16T04:01:11.575Z,76.57
2022-08-16T04:03:40.154Z,77.46
2022-08-16T04:06:09.249Z,77.62
2022-08-16T04:08:36.425Z,77.35
2022-08-16T04:11:07.196Z,75.60
2022-08-16T04:14:00.333Z,74.57
2022-08-16T04:16:27.354Z,73.46
2022-08-16T04:19:02.323Z,73.35
2022-08-16T04:21:32.022Z,72.72
2022-08-16T04:24:00.066Z,71.84
2022-08-16T04:26:31.054Z,72.14
2022-08-16T04:29:17.179Z,72.43
2022-08-16T04:31:55.646Z,72.08
2022-08-16T04:34:32.705Z,72.60
2022-08-16T04:37:01.278Z,70.69
2022-08-16T04:39:45.662Z,68.62
2022-08-16T04:42:18.905Z,69.16
2022-08-16T04:44:56.013Z,68.33
2022-08-16T04:47:31.740Z,67.93
2022-08-16T04:50:02.767Z,66.12
2022-08-16T04:52:33.349Z,60.63
2022-08-16T04:55:06.158Z,57.15
2022-08-16T04:57:33.211Z,52.71
2022-08-16T05:00:32.160Z,52.42
2022-08-16T05:02:56.456Z,49.33
2022-08-16T05:05:25.884Z,47.53
2022-08-16T05:08:00.481Z,47.16
2022-08-16T05:10:29.875Z,47.70
2022-08-16T05:12:58.255Z,48.17
2022-08-16T05:15:25.884Z,50.37
2022-08-16T05:17:58.404Z,50.90
2022-08-16T05:20:39.403Z,50.37
2022-08-16T05:23:17.528Z,47.13
2022-08-16T05:25:48.666Z,48.06
2022-08-16T05:28:17.596Z,49.09
2022-08-16T05:30:45.717Z,47.67
2022-08-16T05:33:18.056Z,46.54
2022-08-16T05:35:54.725Z,46.87
2022-08-16T05:38:32.204Z,46.88
2022-08-16T05:41:02.050Z,48.65
2022-08-16T05:43:32.023Z,50.34
2022-08-16T05:46:28.587Z,50.19
2022-08-16T05:49:03.746Z,51.25
2022-08-16T05:51:38.690Z,51.45
2022-08-16T05:54:08.027Z,51.11
2022-08-16T05:56:37.614Z,50.56
2022-08-16T05:59:06.310Z,51.66
2022-08-16T06:01:37.853Z,51.65
2022-08-16T06:04:13.743Z,51.19
2022-08-16T06:06:57.384Z,51.54
2022-08-16T06:09:42.878Z,51.26
2022-08-16T06:12:27.119Z,50.98
2022-08-16T06:15:01.838Z,50.90
2022-08-16T06:17:43.538Z,50.84
2022-08-16T06:20:18.466Z,50.82
2022-08-16T06:22:57.658Z,50.90
2022-08-16T06:25:36.221Z,50.80
2022-08-16T06:28:08.885Z,50.22
2022-08-16T06:30:43.759Z,49.98
2022-08-16T06:33:22.052Z,49.42
2022-08-16T06:35:55.067Z,49.14
2022-08-16T06:38:33.860Z,49.46
2022-08-16T06:41:06.853Z,48.75
2022-08-16T06:43:40.805Z,48.15
2022-08-16T06:46:10.649Z,48.39
2022-08-16T06:48:42.633Z,48.40
2022-08-16T06:51:10.476Z,48.50
2022-08-16T06:53:37.555Z,48.14
2022-08-16T06:56:14.952Z,47.38
2022-08-16T06:58:52.330Z,47.09
2022-08-16T07:01:26.286Z,46.02
2022-08-16T07:04:10.365Z,45.44
2022-08-16T07:06:40.550Z,44.91
2022-08-16T07:09:12.143Z,44.73
2022-08-16T07:11:47.496Z,45.39
2022-08-16T07:14:25.079Z,44.24
2022-08-16T07:16:55.198Z,43.67
2022-08-16T07:19:22.462Z,43.20
2022-08-16T07:22:37.069Z,44.12
2022-08-16T07:24:56.592Z,42.96
2022-08-16T07:27:23.786Z,45.12
2022-08-16T07:29:57.192Z,44.10
2022-08-16T07:32:29.496Z,44.54
2022-08-16T07:34:58.693Z,42.93
2022-08-16T07:37:25.612Z,42.91
2022-08-16T07:39:56.581Z,42.36
2022-08-16T07:42:34.683Z,42.60
2022-08-16T07:45:07.426Z,42.45
2022-08-16T07:47:35.276Z,42.30
2022-08-16T07:50:07.703Z,41.62
2022-08-16T07:52:38.860Z,38.32
2022-08-16T07:55:07.985Z,39.73
2022-08-16T07:57:38.093Z,38.96
2022-08-16T08:00:26.505Z,38.59
2022-08-16T08:02:55.561Z,37.41
2022-08-16T08:05:35.328Z,34.52
2022-08-16T08:08:11.470Z,34.56
2022-08-16T08:10:51.208Z,35.00
2022-08-16T08:13:18.490Z,33.54
2022-08-16T08:15:52.672Z,33.85
2022-08-16T08:18:29.882Z,33.63
2022-08-16T08:20:59.594Z,33.70
2022-08-16T08:23:27.668Z,32.35
2022-08-16T08:25:55.880Z,31.03
2022-08-16T08:28:23.485Z,32.11
2022-08-16T08:31:02.402Z,32.22
2022-08-16T08:33:31.615Z,31.57
2022-08-16T08:36:00.924Z,31.82
2022-08-16T08:38:44.984Z,32.05
2022-08-16T08:41:18.216Z,32.10
2022-08-16T08:43:47.044Z,31.67
2022-08-16T08:46:21.804Z,31.24
2022-08-16T08:48:58.379Z,32.03
2022-08-16T08:51:27.723Z,31.92
2022-08-16T08:54:06.757Z,31.49
2022-08-16T08:56:37.585Z,31.23
2022-08-16T08:59:13.445Z,30.88
2022-08-16T09:01:56.490Z,30.85
2022-08-16T09:04:28.912Z,30.58
2022-08-16T09:06:58.375Z,31.56
2022-08-16T09:09:25.711Z,31.12
2022-08-16T09:12:06.415Z,31.81
2022-08-16T09:14:39.473Z,31.75
2022-08-16T09:17:38.415Z,31.08
2022-08-16T09:20:08.016Z,31.60
2022-08-16T09:22:35.427Z,30.47
2022-08-16T09:25:11.559Z,29.04
2022-08-16T09:27:57.046Z,29.57
2022-08-16T09:30:33.286Z,29.39
2022-08-16T09:33:10.063Z,29.92
2022-08-16T09:35:39.017Z,29.50
2022-08-16T09:38:08.625Z,29.24
2022-08-16T09:40:53.181Z,30.16
2022-08-16T09:43:58.648Z,30.16
2022-08-16T09:46:44.418Z,29.82
2022-08-16T09:48:56.498Z,30.10
2022-08-16T09:51:30.643Z,29.86
2022-08-16T09:53:57.805Z,29.61
2022-08-16T09:56:34.791Z,30.70
2022-08-16T09:59:07.968Z,31.50
2022-08-16T10:01:36.790Z,31.15
2022-08-16T10:04:31.802Z,30.91
2022-08-16T10:09:44.957Z,31.87
2022-08-16T10:12:34.424Z,32.34
2022-08-16T10:15:01.284Z,31.52
2022-08-16T10:17:29.701Z,31.55
2022-08-16T10:19:58.485Z,30.56
2022-08-16T10:22:25.366Z,30.43
2022-08-16T10:24:55.844Z,30.30
2022-08-16T10:27:29.882Z,29.89
2022-08-16T10:30:26.174Z,30.33
2022-08-16T10:32:55.610Z,29.95
2022-08-16T10:35:23.001Z,30.50
2022-08-16T10:37:52.154Z,29.98
2022-08-16T10:40:29.553Z,29.79
2022-08-16T10:43:00.085Z,29.67
2022-08-16T10:45:37.094Z,28.33
2022-08-16T10:48:27.083Z,28.88
2022-08-16T10:50:56.292Z,28.05
2022-08-16T10:53:33.019Z,27.20
2022-08-16T10:56:02.509Z,26.81
2022-08-16T10:58:34.443Z,26.95
2022-08-16T11:03:57.330Z,25.30
2022-08-16T11:06:28.003Z,24.73
2022-08-16T11:14:30.341Z,24.48
2022-08-16T11:17:10.412Z,23.77
2022-08-16T11:22:47.750Z,23.88
2022-08-16T11:28:06.775Z,23.40
2022-08-16T11:30:38.729Z,23.49
2022-08-16T11:33:06.914Z,22.99
2022-08-16T11:38:46.702Z,23.17
2022-08-16T11:41:12.432Z,23.47
2022-08-16T11:43:41.796Z,23.38
2022-08-16T11:46:44.753Z,22.59
2022-08-16T11:48:59.417Z,22.50
2022-08-16T11:51:26.390Z,22.94
2022-08-16T11:53:53.412Z,22.75
2022-08-16T11:56:37.577Z,23.10
2022-08-16T11:59:07.476Z,23.04
2022-08-16T12:01:44.137Z,22.76
2022-08-16T12:04:22.301Z,22.79
2022-08-16T12:06:50.067Z,22.40
2022-08-16T12:09:20.842Z,23.70
2022-08-16T12:11:52.477Z,23.07
2022-08-16T12:14:22.945Z,22.92
2022-08-16T12:16:55.678Z,24.38
2022-08-16T12:19:35.340Z,23.49
2022-08-16T12:22:06.006Z,23.36
2022-08-16T12:24:47.976Z,24.05
2022-08-16T12:27:23.283Z,24.11
2022-08-16T12:29:54.275Z,24.67
2022-08-16T12:32:38.433Z,24.01
2022-08-16T12:35:12.069Z,24.50
2022-08-16T12:37:41.570Z,24.85
2022-08-16T12:40:23.962Z,24.52
2022-08-16T12:42:58.972Z,24.11
2022-08-16T12:45:31.698Z,24.23
2022-08-16T12:48:34.786Z,23.37
2022-08-16T12:51:13.422Z,23.80
2022-08-16T12:53:48.421Z,24.88
2022-08-16T12:56:17.379Z,24.68
2022-08-16T12:58:51.898Z,24.45
2022-08-16T13:01:22.613Z,24.77
2022-08-16T13:04:08.394Z,24.23
2022-08-16T13:06:40.037Z,23.58
2022-08-16T13:09:20.765Z,24.23
2022-08-16T13:12:24.973Z,24.76
2022-08-16T13:14:53.806Z,24.58
2022-08-16T13:17:26.380Z,24.46
2022-08-16T13:20:08.692Z,24.46
2022-08-16T13:22:41.411Z,24.01
2022-08-16T13:25:10.403Z,22.76
2022-08-16T13:28:02.859Z,23.52
2022-08-16T13:30:36.656Z,22.77
2022-08-16T13:33:10.727Z,23.40
2022-08-16T13:35:44.781Z,23.63
2022-08-16T13:38:24.610Z,22.80
2022-08-16T13:40:55.869Z,22.91
2022-08-16T13:43:27.072Z,23.15
2022-08-16T13:45:56.345Z,23.53
2022-08-16T13:48:37.070Z,23.98
2022-08-16T13:51:15.743Z,23.53
2022-08-16T13:53:45.876Z,23.20
2022-08-16T13:56:25.031Z,23.01
2022-08-16T13:58:54.939Z,24.06
2022-08-16T14:01:22.660Z,23.69
2022-08-16T14:03:50.446Z,24.97
2022-08-16T14:06:21.929Z,24.55
2022-08-16T14:08:59.336Z,24.85
2022-08-16T14:11:34.622Z,25.58
2022-08-16T14:14:01.840Z,25.97
2022-08-16T14:16:33.909Z,26.03
2022-08-16T14:19:02.294Z,26.26
2022-08-16T14:21:35.044Z,26.33
2022-08-16T14:24:07.832Z,26.43
2022-08-16T14:26:42.797Z,26.55
2022-08-16T14:29:10.759Z,26.23
2022-08-16T14:31:39.665Z,25.92
2022-08-16T14:34:07.771Z,26.66
2022-08-16T14:36:38.378Z,26.14
2022-08-16T14:39:09.354Z,25.95
2022-08-16T14:41:36.980Z,25.91
2022-08-16T14:44:07.001Z,25.73
2022-08-16T14:46:34.275Z,25.69
2022-08-16T14:49:01.959Z,25.93
2022-08-16T14:51:29.138Z,25.67
2022-08-16T14:53:56.885Z,25.60
2022-08-16T14:56:42.916Z,25.84
2022-08-16T14:59:11.020Z,25.57
2022-08-16T15:01:57.672Z,25.75
2022-08-16T15:04:39.304Z,26.19
2022-08-16T15:07:11.072Z,26.77
2022-08-16T15:10:00.854Z,26.76
2022-08-16T15:12:31.124Z,26.85
2022-08-16T15:15:04.381Z,27.19
2022-08-16T15:17:40.082Z,27.44
2022-08-16T15:20:11.264Z,27.23
2022-08-16T15:22:44.147Z,27.30
2022-08-16T15:25:14.393Z,27.77
2022-08-16T15:27:43.572Z,27.89
2022-08-16T15:30:59.525Z,28.05
2022-08-16T15:33:09.289Z,28.39
2022-08-16T15:35:38.726Z,28.06
2022-08-16T15:38:08.972Z,27.52
2022-08-16T15:40:57.604Z,28.21
2022-08-16T15:43:33.849Z,28.02
2022-08-16T15:46:54.072Z,28.51
2022-08-16T15:49:14.387Z,28.38
2022-08-16T15:51:43.499Z,28.32
2022-08-16T15:54:21.249Z,28.26
2022-08-16T15:57:03.027Z,28.34
2022-08-16T15:59:48.956Z,28.63
2022-08-16T16:02:27.226Z,28.98
2022-08-16T16:04:56.672Z,29.11
2022-08-16T16:07:23.716Z,29.67
2022-08-16T16:10:00.479Z,30.80
2022-08-16T16:12:50.849Z,31.66
2022-08-16T16:15:23.141Z,31.83
2022-08-16T16:17:52.978Z,32.42
2022-08-16T16:20:33.038Z,32.46
2022-08-16T16:23:10.300Z,32.89
2022-08-16T16:25:39.301Z,33.22
2022-08-16T16:28:12.495Z,33.04
2022-08-16T16:30:44.630Z,33.61
2022-08-16T16:33:21.429Z,33.60
2022-08-16T16:35:55.680Z,33.50
2022-08-16T16:38:31.198Z,33.39
2022-08-16T16:41:00.617Z,33.33
2022-08-16T16:43:31.606Z,33.47
2022-08-16T16:46:01.765Z,33.79
2022-08-16T16:48:35.294Z,37.29
2022-08-16T16:51:09.185Z,41.04
2022-08-16T16:53:41.119Z,42.30
2022-08-16T16:56:10.548Z,44.72
2022-08-16T16:58:57.082Z,46.35
2022-08-16T17:01:41.385Z,48.75
2022-08-16T17:04:19.800Z,50.76
2022-08-16T17:06:53.199Z,52.17
2022-08-16T17:09:24.600Z,55.10
2022-08-16T17:11:54.965Z,56.01
2022-08-16T17:14:32.986Z,56.04
2022-08-16T17:17:08.455Z,57.88
2022-08-16T17:19:40.791Z,58.93
2022-08-16T17:22:32.805Z,59.30
2022-08-16T17:25:00.332Z,60.89
2022-08-16T17:27:32.932Z,60.37
2022-08-16T17:30:15.046Z,60.92
2022-08-16T17:32:55.163Z,60.75
2022-08-16T17:35:37.244Z,60.45
2022-08-16T17:38:07.108Z,60.42
2022-08-16T17:40:47.818Z,60.08
2022-08-16T17:43:37.151Z,60.92
2022-08-16T17:46:41.126Z,61.60
2022-08-16T17:48:59.267Z,61.49
2022-08-16T17:51:27.637Z,62.03
2022-08-16T17:53:54.978Z,62.00
2022-08-16T17:56:21.825Z,62.24
2022-08-16T17:58:49.147Z,61.90
2022-08-16T18:01:16.196Z,61.44
2022-08-16T18:04:08.958Z,60.92
2022-08-16T18:06:30.193Z,60.45
2022-08-16T18:09:03.666Z,60.15
2022-08-16T18:11:33.914Z,60.18
2022-08-16T18:14:01.167Z,60.94
2022-08-16T18:16:28.089Z,61.77
2022-08-16T18:18:55.009Z,61.91
2022-08-16T18:21:40.883Z,61.85
2022-08-16T18:24:09.685Z,62.28
2022-08-16T18:26:38.018Z,62.46
2022-08-16T18:29:06.049Z,62.73
2022-08-16T18:31:33.531Z,63.38
2022-08-16T18:34:01.433Z,64.02
2022-08-16T18:36:28.883Z,64.23
2022-08-16T18:38:55.935Z,64.39
2022-08-16T18:41:24.555Z,64.62
2022-08-16T18:44:24.343Z,64.87
2022-08-16T18:46:40.522Z,65.37
2022-08-16T18:49:07.424Z,65.54
2022-08-16T18:51:34.873Z,65.84
2022-08-16T18:54:01.697Z,67.01
2022-08-16T18:56:56.185Z,70.83
2022-08-16T18:59:15.430Z,69.90
2022-08-16T19:01:42.544Z,70.66
2022-08-16T19:04:48.983Z,70.62
2022-08-16T19:06:56.401Z,70.36
2022-08-16T19:09:23.495Z,70.35
2022-08-16T19:11:50.554Z,70.11
2022-08-16T19:14:18.250Z,69.70
2022-08-16T19:16:45.113Z,69.33
2022-08-16T19:19:11.973Z,69.22
2022-08-16T19:21:39.581Z,69.09
2022-08-16T19:24:06.435Z,69.32
2022-08-16T19:26:45.373Z,69.66
2022-08-16T19:29:12.563Z,69.83
2022-08-16T19:31:40.679Z,69.93
2022-08-16T19:34:08.261Z,70.17
2022-08-16T19:36:37.527Z,70.43
2022-08-16T19:39:13.889Z,70.57
2022-08-16T19:41:44.377Z,70.68
2022-08-16T19:44:11.491Z,70.45
2022-08-16T19:46:41.738Z,70.46
2022-08-16T19:49:09.195Z,70.60
2022-08-16T19:51:37.812Z,70.98
2022-08-16T19:54:04.940Z,71.24
2022-08-16T19:56:31.956Z,71.66
2022-08-16T20:01:46.322Z,72.30
2022-08-16T20:04:13.675Z,72.31
2022-08-16T20:06:41.807Z,72.11
2022-08-16T20:09:10.411Z,72.53
2022-08-16T20:11:41.568Z,72.69
2022-08-16T20:14:08.463Z,72.68
2022-08-16T20:16:35.800Z,72.70
2022-08-16T20:19:04.668Z,72.53
2022-08-16T20:21:31.709Z,72.16
2022-08-16T20:24:22.823Z,71.72
2022-08-16T20:26:45.755Z,71.42
2022-08-16T20:29:12.818Z,71.23
2022-08-16T20:31:39.691Z,71.23
2022-08-16T20:34:06.879Z,71.28
2022-08-16T20:36:33.752Z,71.30
2022-08-16T20:39:03.371Z,71.22
2022-08-16T20:41:30.917Z,71.43
2022-08-16T20:43:57.847Z,71.80
2022-08-16T20:46:26.419Z,72.42
2022-08-16T20:48:54.187Z,75.85
2022-08-16T20:51:21.114Z,74.93
2022-08-16T20:53:47.963Z,74.20
2022-08-16T20:56:14.785Z,73.82
2022-08-16T20:58:41.681Z,73.30
2022-08-16T21:01:08.995Z,72.92
2022-08-16T21:03:36.221Z,72.62
2022-08-16T21:06:04.390Z,72.44
2022-08-16T21:08:53.059Z,72.41
2022-08-16T21:11:21.566Z,72.10
2022-08-16T21:13:48.498Z,72.00
2022-08-16T21:16:16.440Z,72.07
2022-08-16T21:18:43.492Z,72.50
2022-08-16T21:21:12.065Z,72.91
2022-08-16T21:23:39.161Z,73.91
2022-08-16T21:26:10.778Z,73.79
2022-08-16T21:28:42.860Z,73.97
2022-08-16T21:31:11.633Z,74.03
2022-08-16T21:33:38.773Z,73.94
2022-08-16T21:36:06.423Z,73.78
2022-08-16T21:38:33.277Z,73.50
2022-08-16T21:41:02.258Z,73.42
2022-08-16T21:43:32.336Z,73.41
2022-08-16T21:46:04.015Z,73.04
2022-08-16T21:48:33.783Z,72.67
2022-08-16T21:51:12.452Z,72.16
2022-08-16T21:53:40.109Z,71.76
2022-08-16T21:56:08.305Z,71.83
2022-08-16T21:58:42.270Z,70.98
2022-08-16T22:01:09.363Z,71.56
2022-08-16T22:03:36.533Z,70.98
2022-08-16T22:06:13.365Z,70.64
2022-08-16T22:08:48.777Z,70.20
2022-08-16T22:11:20.662Z,70.10
2022-08-16T22:13:57.481Z,69.82
2022-08-16T22:16:35.214Z,69.82
2022-08-16T22:19:02.794Z,70.57
2022-08-16T22:21:30.902Z,70.04
2022-08-16T22:23:58.765Z,70.03
2022-08-16T22:26:31.969Z,70.35
2022-08-16T22:29:01.022Z,71.99
2022-08-16T22:31:28.302Z,72.00
2022-08-16T22:33:56.783Z,71.78
2022-08-16T22:36:28.514Z,72.02
2022-08-16T22:39:00.789Z,71.66
2022-08-16T22:41:31.091Z,71.16
2022-08-16T22:43:58.604Z,70.76
2022-08-16T22:46:25.434Z,70.42
2022-08-16T22:48:52.272Z,70.19
2022-08-16T22:51:20.940Z,70.10
2022-08-16T22:53:48.019Z,70.27
2022-08-16T22:56:15.698Z,70.09
2022-08-16T22:58:43.054Z,70.08
2022-08-16T23:01:10.776Z,70.13
2022-08-16T23:03:38.345Z,69.85
2022-08-16T23:06:05.886Z,69.53
2022-08-16T23:08:39.226Z,69.28
2022-08-16T23:11:10.117Z,69.21
2022-08-16T23:13:37.291Z,69.69
2022-08-16T23:16:11.388Z,70.23
2022-08-16T23:18:39.873Z,71.04
2022-08-16T23:21:09.733Z,71.17
2022-08-16T23:23:37.751Z,71.42
2022-08-16T23:26:46.831Z,71.32
2022-08-16T23:28:53.121Z,71.35
2022-08-16T23:31:20.037Z,71.40
2022-08-16T23:33:46.892Z,71.47
2022-08-16T23:36:14.314Z,71.68
2022-08-16T23:38:41.832Z,71.85
2022-08-16T23:41:12.200Z,72.51
2022-08-16T23:43:43.677Z,72.42
2022-08-16T23:46:19.477Z,72.77
2022-08-16T23:50:00.854Z,72.99
2022-08-16T23:51:34.179Z,72.30
2022-08-16T23:54:01.245Z,71.88
2022-08-16T23:56:38.975Z,71.64
2022-08-16T23:59:07.957Z,71.37
